sensor_id;sensor_type;location;lat;lon;timestamp;temperature;humidity
2955;DHT22;1487;51.470;6.938;2023-04-27T00:00:55;4.10;99.90
2955;DHT22;1487;51.470;6.938;2023-04-27T00:03:21;4.10;99.90
2955;DHT22;1487;51.470;6.938;2023-04-27T00:05:49;4.10;99.90
2955;DHT22;1487;51.470;6.938;2023-04-27T00:08:17;4.00;99.90
2955;DHT22;1487;51.470;6.938;2023-04-27T00:10:43;4.00;99.90
2955;DHT22;1487;51.470;6.938;2023-04-27T00:13:10;3.90;99.90
2955;DHT22;1487;51.470;6.938;2023-04-27T00:15:37;3.90;99.90
2955;DHT22;1487;51.470;6.938;2023-04-27T00:18:04;3.90;99.90
2955;DHT22;1487;51.470;6.938;2023-04-27T00:20:31;3.90;99.90
2955;DHT22;1487;51.470;6.938;2023-04-27T00:22:59;3.80;99.90
2955;DHT22;1487;51.470;6.938;2023-04-27T00:25:26;3.80;99.90
2955;DHT22;1487;51.470;6.938;2023-04-27T00:27:53;3.80;99.90
2955;DHT22;1487;51.470;6.938;2023-04-27T00:30:20;3.70;99.90
2955;DHT22;1487;51.470;6.938;2023-04-27T00:32:46;3.70;99.90
2955;DHT22;1487;51.470;6.938;2023-04-27T00:35:13;3.70;99.90
2955;DHT22;1487;51.470;6.938;2023-04-27T00:37:40;3.60;99.90
2955;DHT22;1487;51.470;6.938;2023-04-27T00:40:09;3.60;99.90
2955;DHT22;1487;51.470;6.938;2023-04-27T00:42:36;3.60;99.90
2955;DHT22;1487;51.470;6.938;2023-04-27T00:45:04;3.60;99.90
2955;DHT22;1487;51.470;6.938;2023-04-27T00:47:31;3.50;99.90
2955;DHT22;1487;51.470;6.938;2023-04-27T00:49:58;3.50;99.90
2955;DHT22;1487;51.470;6.938;2023-04-27T00:52:26;3.50;99.90
2955;DHT22;1487;51.470;6.938;2023-04-27T00:54:52;3.50;99.90
2955;DHT22;1487;51.470;6.938;2023-04-27T00:57:23;3.40;99.90
2955;DHT22;1487;51.470;6.938;2023-04-27T00:59:49;3.40;99.90
2955;DHT22;1487;51.470;6.938;2023-04-27T01:02:16;3.40;99.90
2955;DHT22;1487;51.470;6.938;2023-04-27T01:04:43;3.40;99.90
2955;DHT22;1487;51.470;6.938;2023-04-27T01:07:10;3.40;99.90
2955;DHT22;1487;51.470;6.938;2023-04-27T01:09:37;3.40;99.90
2955;DHT22;1487;51.470;6.938;2023-04-27T01:12:04;3.40;99.90
2955;DHT22;1487;51.470;6.938;2023-04-27T01:14:32;3.40;99.90
2955;DHT22;1487;51.470;6.938;2023-04-27T01:16:59;3.30;99.90
2955;DHT22;1487;51.470;6.938;2023-04-27T01:19:25;3.30;99.90
2955;DHT22;1487;51.470;6.938;2023-04-27T01:21:53;3.30;99.90
2955;DHT22;1487;51.470;6.938;2023-04-27T01:24:21;3.30;99.90
2955;DHT22;1487;51.470;6.938;2023-04-27T01:26:48;3.20;99.90
2955;DHT22;1487;51.470;6.938;2023-04-27T01:29:16;3.20;99.90
2955;DHT22;1487;51.470;6.938;2023-04-27T01:31:44;3.20;99.90
2955;DHT22;1487;51.470;6.938;2023-04-27T01:34:10;3.20;99.90
2955;DHT22;1487;51.470;6.938;2023-04-27T01:36:37;3.10;99.90
2955;DHT22;1487;51.470;6.938;2023-04-27T01:39:04;3.10;99.90
2955;DHT22;1487;51.470;6.938;2023-04-27T01:41:35;3.10;99.90
2955;DHT22;1487;51.470;6.938;2023-04-27T01:44:01;3.00;99.90
2955;DHT22;1487;51.470;6.938;2023-04-27T01:46:28;3.00;99.90
2955;DHT22;1487;51.470;6.938;2023-04-27T01:48:55;3.00;99.90
2955;DHT22;1487;51.470;6.938;2023-04-27T01:51:22;3.00;99.90
2955;DHT22;1487;51.470;6.938;2023-04-27T01:53:49;3.00;99.90
2955;DHT22;1487;51.470;6.938;2023-04-27T01:56:15;3.00;99.90
2955;DHT22;1487;51.470;6.938;2023-04-27T01:58:43;3.00;99.90
2955;DHT22;1487;51.470;6.938;2023-04-27T02:01:10;2.90;99.90
2955;DHT22;1487;51.470;6.938;2023-04-27T02:03:37;2.80;99.90
2955;DHT22;1487;51.470;6.938;2023-04-27T02:06:04;2.80;99.90
2955;DHT22;1487;51.470;6.938;2023-04-27T02:08:31;2.80;99.90
2955;DHT22;1487;51.470;6.938;2023-04-27T02:10:58;2.80;99.90
2955;DHT22;1487;51.470;6.938;2023-04-27T02:13:24;2.80;99.90
2955;DHT22;1487;51.470;6.938;2023-04-27T02:15:53;2.80;99.90
2955;DHT22;1487;51.470;6.938;2023-04-27T02:18:20;2.70;99.90
2955;DHT22;1487;51.470;6.938;2023-04-27T02:20:47;2.70;99.90
2955;DHT22;1487;51.470;6.938;2023-04-27T02:23:14;2.70;99.90
2955;DHT22;1487;51.470;6.938;2023-04-27T02:25:41;2.70;99.90
2955;DHT22;1487;51.470;6.938;2023-04-27T02:28:11;2.70;99.90
2955;DHT22;1487;51.470;6.938;2023-04-27T02:30:38;2.60;99.90
2955;DHT22;1487;51.470;6.938;2023-04-27T02:33:06;2.60;99.90
2955;DHT22;1487;51.470;6.938;2023-04-27T02:35:33;2.60;99.90
2955;DHT22;1487;51.470;6.938;2023-04-27T02:38:00;2.60;99.90
2955;DHT22;1487;51.470;6.938;2023-04-27T02:40:26;2.50;99.90
2955;DHT22;1487;51.470;6.938;2023-04-27T02:42:53;2.60;99.90
2955;DHT22;1487;51.470;6.938;2023-04-27T02:45:20;2.70;99.90
2955;DHT22;1487;51.470;6.938;2023-04-27T02:47:47;2.70;99.90
2955;DHT22;1487;51.470;6.938;2023-04-27T02:50:16;2.70;99.90
2955;DHT22;1487;51.470;6.938;2023-04-27T02:52:43;2.80;99.90
2955;DHT22;1487;51.470;6.938;2023-04-27T02:55:10;2.80;99.90
2955;DHT22;1487;51.470;6.938;2023-04-27T02:57:37;2.80;99.90
2955;DHT22;1487;51.470;6.938;2023-04-27T03:00:06;2.80;99.90
2955;DHT22;1487;51.470;6.938;2023-04-27T03:02:33;2.80;99.90
2955;DHT22;1487;51.470;6.938;2023-04-27T03:05:00;2.80;99.90
2955;DHT22;1487;51.470;6.938;2023-04-27T03:07:29;2.90;99.90
2955;DHT22;1487;51.470;6.938;2023-04-27T03:09:56;2.80;99.90
2955;DHT22;1487;51.470;6.938;2023-04-27T03:12:23;2.70;99.90
2955;DHT22;1487;51.470;6.938;2023-04-27T03:14:50;2.80;99.90
2955;DHT22;1487;51.470;6.938;2023-04-27T03:17:16;2.80;99.90
2955;DHT22;1487;51.470;6.938;2023-04-27T03:19:43;2.80;99.90
2955;DHT22;1487;51.470;6.938;2023-04-27T03:22:12;2.80;99.90
2955;DHT22;1487;51.470;6.938;2023-04-27T03:24:40;2.80;99.90
2955;DHT22;1487;51.470;6.938;2023-04-27T03:27:07;2.80;99.90
2955;DHT22;1487;51.470;6.938;2023-04-27T03:29:34;2.70;99.90
2955;DHT22;1487;51.470;6.938;2023-04-27T03:32:01;2.70;99.90
2955;DHT22;1487;51.470;6.938;2023-04-27T03:34:28;2.70;99.90
2955;DHT22;1487;51.470;6.938;2023-04-27T03:36:55;2.70;99.90
2955;DHT22;1487;51.470;6.938;2023-04-27T03:39:22;2.60;99.90
2955;DHT22;1487;51.470;6.938;2023-04-27T03:41:50;2.60;99.90
2955;DHT22;1487;51.470;6.938;2023-04-27T03:44:17;2.60;99.90
2955;DHT22;1487;51.470;6.938;2023-04-27T03:46:44;2.60;99.90
2955;DHT22;1487;51.470;6.938;2023-04-27T03:49:11;2.60;99.90
2955;DHT22;1487;51.470;6.938;2023-04-27T03:51:37;2.60;99.90
2955;DHT22;1487;51.470;6.938;2023-04-27T03:54:06;2.60;99.90
2955;DHT22;1487;51.470;6.938;2023-04-27T03:56:34;2.60;99.90
2955;DHT22;1487;51.470;6.938;2023-04-27T03:59:02;2.70;99.90
2955;DHT22;1487;51.470;6.938;2023-04-27T04:01:29;2.60;99.90
2955;DHT22;1487;51.470;6.938;2023-04-27T04:03:58;2.60;99.90
2955;DHT22;1487;51.470;6.938;2023-04-27T04:06:25;2.60;99.90
2955;DHT22;1487;51.470;6.938;2023-04-27T04:08:52;2.60;99.90
2955;DHT22;1487;51.470;6.938;2023-04-27T04:11:19;2.50;99.90
2955;DHT22;1487;51.470;6.938;2023-04-27T04:13:47;2.50;99.90
2955;DHT22;1487;51.470;6.938;2023-04-27T04:16:15;2.40;99.90
2955;DHT22;1487;51.470;6.938;2023-04-27T04:18:41;2.40;99.90
2955;DHT22;1487;51.470;6.938;2023-04-27T04:21:09;2.40;99.90
2955;DHT22;1487;51.470;6.938;2023-04-27T04:23:35;2.50;99.90
2955;DHT22;1487;51.470;6.938;2023-04-27T04:26:03;2.50;99.90
2955;DHT22;1487;51.470;6.938;2023-04-27T04:28:30;2.60;99.90
2955;DHT22;1487;51.470;6.938;2023-04-27T04:30:56;2.70;99.90
2955;DHT22;1487;51.470;6.938;2023-04-27T04:33:25;2.70;99.90
2955;DHT22;1487;51.470;6.938;2023-04-27T04:35:52;2.70;99.90
2955;DHT22;1487;51.470;6.938;2023-04-27T04:38:19;2.70;99.90
2955;DHT22;1487;51.470;6.938;2023-04-27T04:40:46;2.80;99.90
2955;DHT22;1487;51.470;6.938;2023-04-27T04:43:13;2.90;99.90
2955;DHT22;1487;51.470;6.938;2023-04-27T04:45:39;2.90;99.90
2955;DHT22;1487;51.470;6.938;2023-04-27T04:48:06;3.00;99.90
2955;DHT22;1487;51.470;6.938;2023-04-27T04:50:34;2.90;99.90
2955;DHT22;1487;51.470;6.938;2023-04-27T04:53:01;2.90;99.90
2955;DHT22;1487;51.470;6.938;2023-04-27T04:55:28;3.00;99.90
2955;DHT22;1487;51.470;6.938;2023-04-27T04:57:55;3.00;99.90
2955;DHT22;1487;51.470;6.938;2023-04-27T05:00:21;3.00;99.90
2955;DHT22;1487;51.470;6.938;2023-04-27T05:02:48;3.00;99.90
2955;DHT22;1487;51.470;6.938;2023-04-27T05:05:15;3.00;99.90
2955;DHT22;1487;51.470;6.938;2023-04-27T05:07:43;3.10;99.90
2955;DHT22;1487;51.470;6.938;2023-04-27T05:10:10;3.20;99.90
2955;DHT22;1487;51.470;6.938;2023-04-27T05:12:37;3.30;99.90
2955;DHT22;1487;51.470;6.938;2023-04-27T05:15:04;3.30;99.90
2955;DHT22;1487;51.470;6.938;2023-04-27T05:17:31;3.40;99.90
2955;DHT22;1487;51.470;6.938;2023-04-27T05:19:58;3.50;99.90
2955;DHT22;1487;51.470;6.938;2023-04-27T05:22:25;3.60;99.90
2955;DHT22;1487;51.470;6.938;2023-04-27T05:24:53;3.70;99.90
2955;DHT22;1487;51.470;6.938;2023-04-27T05:27:20;3.90;99.90
2955;DHT22;1487;51.470;6.938;2023-04-27T05:29:47;4.00;99.90
2955;DHT22;1487;51.470;6.938;2023-04-27T05:32:13;4.20;99.90
2955;DHT22;1487;51.470;6.938;2023-04-27T05:34:40;4.30;99.90
2955;DHT22;1487;51.470;6.938;2023-04-27T05:37:08;4.50;99.90
2955;DHT22;1487;51.470;6.938;2023-04-27T05:39:36;4.60;99.90
2955;DHT22;1487;51.470;6.938;2023-04-27T05:42:04;4.70;99.90
2955;DHT22;1487;51.470;6.938;2023-04-27T05:44:31;4.90;99.90
2955;DHT22;1487;51.470;6.938;2023-04-27T05:46:58;5.00;99.90
2955;DHT22;1487;51.470;6.938;2023-04-27T05:49:24;5.20;99.90
2955;DHT22;1487;51.470;6.938;2023-04-27T05:51:51;5.40;99.90
2955;DHT22;1487;51.470;6.938;2023-04-27T05:54:18;5.50;99.90
2955;DHT22;1487;51.470;6.938;2023-04-27T05:56:45;5.90;99.90
2955;DHT22;1487;51.470;6.938;2023-04-27T05:59:13;6.70;99.90
2955;DHT22;1487;51.470;6.938;2023-04-27T06:01:40;7.90;99.90
2955;DHT22;1487;51.470;6.938;2023-04-27T06:04:07;9.00;99.90
2955;DHT22;1487;51.470;6.938;2023-04-27T06:06:33;9.70;99.90
2955;DHT22;1487;51.470;6.938;2023-04-27T06:09:00;10.50;99.90
2955;DHT22;1487;51.470;6.938;2023-04-27T06:11:27;11.70;99.90
2955;DHT22;1487;51.470;6.938;2023-04-27T06:13:54;12.50;99.90
2955;DHT22;1487;51.470;6.938;2023-04-27T06:16:22;14.10;99.90
2955;DHT22;1487;51.470;6.938;2023-04-27T06:18:49;15.60;99.90
2955;DHT22;1487;51.470;6.938;2023-04-27T06:21:16;16.20;91.10
2955;DHT22;1487;51.470;6.938;2023-04-27T06:23:43;17.10;85.30
2955;DHT22;1487;51.470;6.938;2023-04-27T06:26:10;17.50;77.80
2955;DHT22;1487;51.470;6.938;2023-04-27T06:28:36;18.40;75.00
2955;DHT22;1487;51.470;6.938;2023-04-27T06:31:04;19.00;71.90
2955;DHT22;1487;51.470;6.938;2023-04-27T06:33:32;19.70;67.20
2955;DHT22;1487;51.470;6.938;2023-04-27T06:35:59;20.10;64.20
2955;DHT22;1487;51.470;6.938;2023-04-27T06:38:26;19.90;61.80
2955;DHT22;1487;51.470;6.938;2023-04-27T06:40:53;19.70;60.90
2955;DHT22;1487;51.470;6.938;2023-04-27T06:43:20;19.30;61.10
2955;DHT22;1487;51.470;6.938;2023-04-27T06:45:47;19.70;60.70
2955;DHT22;1487;51.470;6.938;2023-04-27T06:48:14;20.20;60.10
2955;DHT22;1487;51.470;6.938;2023-04-27T06:50:42;20.20;57.40
2955;DHT22;1487;51.470;6.938;2023-04-27T06:53:09;19.90;58.10
2955;DHT22;1487;51.470;6.938;2023-04-27T06:55:36;20.10;57.80
2955;DHT22;1487;51.470;6.938;2023-04-27T06:58:03;20.40;57.60
2955;DHT22;1487;51.470;6.938;2023-04-27T07:00:30;20.50;56.70
2955;DHT22;1487;51.470;6.938;2023-04-27T07:02:57;20.80;57.60
2955;DHT22;1487;51.470;6.938;2023-04-27T07:05:24;20.80;56.40
2955;DHT22;1487;51.470;6.938;2023-04-27T07:07:52;21.10;56.40
2955;DHT22;1487;51.470;6.938;2023-04-27T07:10:18;20.70;56.10
2955;DHT22;1487;51.470;6.938;2023-04-27T07:12:45;21.00;57.70
2955;DHT22;1487;51.470;6.938;2023-04-27T07:15:12;22.10;56.10
2955;DHT22;1487;51.470;6.938;2023-04-27T07:17:39;22.60;55.40
2955;DHT22;1487;51.470;6.938;2023-04-27T07:20:07;22.50;52.10
2955;DHT22;1487;51.470;6.938;2023-04-27T07:22:34;22.40;51.90
2955;DHT22;1487;51.470;6.938;2023-04-27T07:25:02;22.50;53.00
2955;DHT22;1487;51.470;6.938;2023-04-27T07:27:30;22.80;52.70
2955;DHT22;1487;51.470;6.938;2023-04-27T07:29:57;23.40;52.80
2955;DHT22;1487;51.470;6.938;2023-04-27T07:32:24;23.80;50.90
2955;DHT22;1487;51.470;6.938;2023-04-27T07:34:51;23.20;52.70
2955;DHT22;1487;51.470;6.938;2023-04-27T07:37:18;24.00;52.40
2955;DHT22;1487;51.470;6.938;2023-04-27T07:39:44;24.80;50.30
2955;DHT22;1487;51.470;6.938;2023-04-27T07:42:13;25.00;51.20
2955;DHT22;1487;51.470;6.938;2023-04-27T07:44:40;25.40;47.40
2955;DHT22;1487;51.470;6.938;2023-04-27T07:47:07;25.70;48.30
2955;DHT22;1487;51.470;6.938;2023-04-27T07:49:34;25.50;47.90
2955;DHT22;1487;51.470;6.938;2023-04-27T07:52:01;25.20;46.00
2955;DHT22;1487;51.470;6.938;2023-04-27T07:54:29;24.80;46.80
2955;DHT22;1487;51.470;6.938;2023-04-27T07:56:55;25.10;48.60
2955;DHT22;1487;51.470;6.938;2023-04-27T07:59:27;24.80;48.10
2955;DHT22;1487;51.470;6.938;2023-04-27T08:01:53;24.90;46.80
2955;DHT22;1487;51.470;6.938;2023-04-27T08:04:20;24.90;47.80
2955;DHT22;1487;51.470;6.938;2023-04-27T08:06:47;24.80;46.70
2955;DHT22;1487;51.470;6.938;2023-04-27T08:09:14;25.50;46.40
2955;DHT22;1487;51.470;6.938;2023-04-27T08:11:41;25.50;45.80
2955;DHT22;1487;51.470;6.938;2023-04-27T08:14:07;25.50;44.90
2955;DHT22;1487;51.470;6.938;2023-04-27T08:16:39;25.20;46.10
2955;DHT22;1487;51.470;6.938;2023-04-27T08:19:06;25.40;46.00
2955;DHT22;1487;51.470;6.938;2023-04-27T08:21:33;25.70;44.90
2955;DHT22;1487;51.470;6.938;2023-04-27T08:24:01;25.40;44.60
2955;DHT22;1487;51.470;6.938;2023-04-27T08:26:27;25.40;46.10
2955;DHT22;1487;51.470;6.938;2023-04-27T08:28:54;25.90;44.40
2955;DHT22;1487;51.470;6.938;2023-04-27T08:31:23;26.30;45.20
2955;DHT22;1487;51.470;6.938;2023-04-27T08:33:51;26.00;43.20
2955;DHT22;1487;51.470;6.938;2023-04-27T08:36:19;26.00;44.50
2955;DHT22;1487;51.470;6.938;2023-04-27T08:38:48;26.20;43.80
2955;DHT22;1487;51.470;6.938;2023-04-27T08:41:17;26.10;42.90
2955;DHT22;1487;51.470;6.938;2023-04-27T08:43:45;25.40;43.40
2955;DHT22;1487;51.470;6.938;2023-04-27T08:46:17;25.00;42.90
2955;DHT22;1487;51.470;6.938;2023-04-27T08:48:44;24.70;44.00
2955;DHT22;1487;51.470;6.938;2023-04-27T08:51:14;24.70;43.70
2955;DHT22;1487;51.470;6.938;2023-04-27T08:53:46;24.80;43.90
2955;DHT22;1487;51.470;6.938;2023-04-27T08:56:13;24.40;43.40
2955;DHT22;1487;51.470;6.938;2023-04-27T08:58:40;24.70;43.80
2955;DHT22;1487;51.470;6.938;2023-04-27T09:01:07;24.90;44.30
2955;DHT22;1487;51.470;6.938;2023-04-27T09:03:34;24.50;43.30
2955;DHT22;1487;51.470;6.938;2023-04-27T09:06:03;23.90;42.20
2955;DHT22;1487;51.470;6.938;2023-04-27T09:08:42;23.90;44.40
2955;DHT22;1487;51.470;6.938;2023-04-27T09:11:09;23.80;43.70
2955;DHT22;1487;51.470;6.938;2023-04-27T09:13:36;23.10;43.20
2955;DHT22;1487;51.470;6.938;2023-04-27T09:16:04;23.30;43.50
2955;DHT22;1487;51.470;6.938;2023-04-27T09:18:34;24.00;45.10
2955;DHT22;1487;51.470;6.938;2023-04-27T09:21:02;23.90;42.90
2955;DHT22;1487;51.470;6.938;2023-04-27T09:23:30;22.60;42.20
2955;DHT22;1487;51.470;6.938;2023-04-27T09:26:00;22.40;44.50
2955;DHT22;1487;51.470;6.938;2023-04-27T09:28:29;22.80;44.90
2955;DHT22;1487;51.470;6.938;2023-04-27T09:30:58;22.90;44.30
2955;DHT22;1487;51.470;6.938;2023-04-27T09:33:26;23.00;43.60
2955;DHT22;1487;51.470;6.938;2023-04-27T09:35:54;22.40;42.80
2955;DHT22;1487;51.470;6.938;2023-04-27T09:38:21;21.90;43.50
2955;DHT22;1487;51.470;6.938;2023-04-27T09:40:49;22.40;46.10
2955;DHT22;1487;51.470;6.938;2023-04-27T09:43:17;22.80;46.50
2955;DHT22;1487;51.470;6.938;2023-04-27T09:45:44;23.10;43.10
2955;DHT22;1487;51.470;6.938;2023-04-27T09:48:11;22.70;42.80
2955;DHT22;1487;51.470;6.938;2023-04-27T09:50:44;22.50;43.30
2955;DHT22;1487;51.470;6.938;2023-04-27T09:53:13;22.20;43.20
2955;DHT22;1487;51.470;6.938;2023-04-27T09:55:46;22.20;44.00
2955;DHT22;1487;51.470;6.938;2023-04-27T09:58:41;21.80;43.90
2955;DHT22;1487;51.470;6.938;2023-04-27T10:01:14;21.30;45.10
2955;DHT22;1487;51.470;6.938;2023-04-27T10:03:55;21.60;44.20
2955;DHT22;1487;51.470;6.938;2023-04-27T10:06:52;21.70;44.00
2955;DHT22;1487;51.470;6.938;2023-04-27T10:09:23;21.80;44.40
2955;DHT22;1487;51.470;6.938;2023-04-27T10:11:51;21.70;44.50
2955;DHT22;1487;51.470;6.938;2023-04-27T10:14:20;22.00;46.50
2955;DHT22;1487;51.470;6.938;2023-04-27T10:16:50;22.10;44.00
2955;DHT22;1487;51.470;6.938;2023-04-27T10:19:18;22.00;44.00
2955;DHT22;1487;51.470;6.938;2023-04-27T10:21:53;22.50;44.70
2955;DHT22;1487;51.470;6.938;2023-04-27T10:24:31;23.40;44.60
2955;DHT22;1487;51.470;6.938;2023-04-27T10:27:01;24.40;44.90
2955;DHT22;1487;51.470;6.938;2023-04-27T10:29:36;24.30;41.60
2955;DHT22;1487;51.470;6.938;2023-04-27T10:32:08;23.90;42.30
2955;DHT22;1487;51.470;6.938;2023-04-27T10:34:36;23.70;42.30
2955;DHT22;1487;51.470;6.938;2023-04-27T10:37:07;23.90;43.50
2955;DHT22;1487;51.470;6.938;2023-04-27T10:39:36;24.20;43.70
2955;DHT22;1487;51.470;6.938;2023-04-27T10:42:04;24.20;41.40
2955;DHT22;1487;51.470;6.938;2023-04-27T10:44:32;23.40;41.80
2955;DHT22;1487;51.470;6.938;2023-04-27T10:47:10;22.80;42.00
2955;DHT22;1487;51.470;6.938;2023-04-27T10:49:38;22.70;44.60
2955;DHT22;1487;51.470;6.938;2023-04-27T10:52:05;22.40;44.00
2955;DHT22;1487;51.470;6.938;2023-04-27T10:54:32;22.20;42.80
2955;DHT22;1487;51.470;6.938;2023-04-27T10:57:04;22.30;44.00
2955;DHT22;1487;51.470;6.938;2023-04-27T10:59:31;22.60;43.50
2955;DHT22;1487;51.470;6.938;2023-04-27T11:02:00;22.80;42.20
2955;DHT22;1487;51.470;6.938;2023-04-27T11:04:37;22.80;43.70
2955;DHT22;1487;51.470;6.938;2023-04-27T11:07:05;21.70;40.10
2955;DHT22;1487;51.470;6.938;2023-04-27T11:09:33;21.50;42.40
2955;DHT22;1487;51.470;6.938;2023-04-27T11:12:00;21.50;42.20
2955;DHT22;1487;51.470;6.938;2023-04-27T11:14:28;21.80;44.20
2955;DHT22;1487;51.470;6.938;2023-04-27T11:16:55;22.00;42.90
2955;DHT22;1487;51.470;6.938;2023-04-27T11:19:23;22.40;42.90
2955;DHT22;1487;51.470;6.938;2023-04-27T11:21:50;23.10;43.80
2955;DHT22;1487;51.470;6.938;2023-04-27T11:24:17;23.40;41.00
2955;DHT22;1487;51.470;6.938;2023-04-27T11:26:50;24.00;42.40
2955;DHT22;1487;51.470;6.938;2023-04-27T11:29:17;24.20;42.20
2955;DHT22;1487;51.470;6.938;2023-04-27T11:31:46;24.70;41.10
2955;DHT22;1487;51.470;6.938;2023-04-27T11:34:17;24.60;39.50
2955;DHT22;1487;51.470;6.938;2023-04-27T11:36:55;24.50;40.60
2955;DHT22;1487;51.470;6.938;2023-04-27T11:39:22;25.00;42.30
2955;DHT22;1487;51.470;6.938;2023-04-27T11:41:49;25.00;39.80
2955;DHT22;1487;51.470;6.938;2023-04-27T11:44:16;24.60;38.60
2955;DHT22;1487;51.470;6.938;2023-04-27T11:46:44;24.70;39.80
2955;DHT22;1487;51.470;6.938;2023-04-27T11:49:11;24.80;39.90
2955;DHT22;1487;51.470;6.938;2023-04-27T11:51:39;25.00;41.30
2955;DHT22;1487;51.470;6.938;2023-04-27T11:54:11;25.70;42.50
2955;DHT22;1487;51.470;6.938;2023-04-27T11:56:40;25.20;38.40
2955;DHT22;1487;51.470;6.938;2023-04-27T11:59:17;25.60;41.60
2955;DHT22;1487;51.470;6.938;2023-04-27T12:01:44;26.10;40.80
2955;DHT22;1487;51.470;6.938;2023-04-27T12:04:12;26.30;39.50
2955;DHT22;1487;51.470;6.938;2023-04-27T12:06:39;26.60;38.00
2955;DHT22;1487;51.470;6.938;2023-04-27T12:09:05;26.30;37.00
2955;DHT22;1487;51.470;6.938;2023-04-27T12:11:34;25.60;37.60
2955;DHT22;1487;51.470;6.938;2023-04-27T12:14:01;25.60;38.10
2955;DHT22;1487;51.470;6.938;2023-04-27T12:16:28;25.60;39.30
2955;DHT22;1487;51.470;6.938;2023-04-27T12:18:55;25.90;40.90
2955;DHT22;1487;51.470;6.938;2023-04-27T12:21:22;26.30;41.60
2955;DHT22;1487;51.470;6.938;2023-04-27T12:23:49;26.80;40.40
2955;DHT22;1487;51.470;6.938;2023-04-27T12:26:16;27.50;39.10
2955;DHT22;1487;51.470;6.938;2023-04-27T12:28:44;27.40;39.10
2955;DHT22;1487;51.470;6.938;2023-04-27T12:31:14;27.10;38.30
2955;DHT22;1487;51.470;6.938;2023-04-27T12:33:41;27.50;38.80
2955;DHT22;1487;51.470;6.938;2023-04-27T12:36:07;27.80;39.40
2955;DHT22;1487;51.470;6.938;2023-04-27T12:38:34;27.40;37.30
2955;DHT22;1487;51.470;6.938;2023-04-27T12:41:01;26.90;38.90
2955;DHT22;1487;51.470;6.938;2023-04-27T12:43:28;26.70;38.00
2955;DHT22;1487;51.470;6.938;2023-04-27T12:45:56;26.20;37.40
2955;DHT22;1487;51.470;6.938;2023-04-27T12:48:23;23.40;37.80
2955;DHT22;1487;51.470;6.938;2023-04-27T12:50:50;22.10;39.20
2955;DHT22;1487;51.470;6.938;2023-04-27T12:53:17;22.40;41.10
2955;DHT22;1487;51.470;6.938;2023-04-27T12:55:46;22.50;40.00
2955;DHT22;1487;51.470;6.938;2023-04-27T12:58:13;22.50;42.20
2955;DHT22;1487;51.470;6.938;2023-04-27T13:00:40;23.30;43.90
2955;DHT22;1487;51.470;6.938;2023-04-27T13:03:08;23.90;42.10
2955;DHT22;1487;51.470;6.938;2023-04-27T13:05:35;23.80;40.50
2955;DHT22;1487;51.470;6.938;2023-04-27T13:08:02;23.30;38.60
2955;DHT22;1487;51.470;6.938;2023-04-27T13:10:30;22.80;39.30
2955;DHT22;1487;51.470;6.938;2023-04-27T13:12:57;23.80;41.10
2955;DHT22;1487;51.470;6.938;2023-04-27T13:15:24;24.60;41.30
2955;DHT22;1487;51.470;6.938;2023-04-27T13:17:50;25.10;38.70
2955;DHT22;1487;51.470;6.938;2023-04-27T13:20:20;24.80;38.30
2955;DHT22;1487;51.470;6.938;2023-04-27T13:22:47;24.00;38.10
2955;DHT22;1487;51.470;6.938;2023-04-27T13:25:14;23.90;40.70
2955;DHT22;1487;51.470;6.938;2023-04-27T13:27:41;24.90;42.10
2955;DHT22;1487;51.470;6.938;2023-04-27T13:30:09;25.20;38.50
2955;DHT22;1487;51.470;6.938;2023-04-27T13:32:36;24.60;38.40
2955;DHT22;1487;51.470;6.938;2023-04-27T13:35:03;24.70;40.10
2955;DHT22;1487;51.470;6.938;2023-04-27T13:37:31;25.30;39.90
2955;DHT22;1487;51.470;6.938;2023-04-27T13:39:58;25.90;38.80
2955;DHT22;1487;51.470;6.938;2023-04-27T13:42:25;25.70;37.40
2955;DHT22;1487;51.470;6.938;2023-04-27T13:44:54;24.90;38.40
2955;DHT22;1487;51.470;6.938;2023-04-27T13:47:21;24.60;38.70
2955;DHT22;1487;51.470;6.938;2023-04-27T13:49:48;25.10;41.00
2955;DHT22;1487;51.470;6.938;2023-04-27T13:52:15;25.80;40.80
2955;DHT22;1487;51.470;6.938;2023-04-27T13:54:43;25.90;40.10
2955;DHT22;1487;51.470;6.938;2023-04-27T13:57:10;26.30;38.30
2955;DHT22;1487;51.470;6.938;2023-04-27T13:59:37;26.30;37.60
2955;DHT22;1487;51.470;6.938;2023-04-27T14:02:03;25.90;37.40
2955;DHT22;1487;51.470;6.938;2023-04-27T14:04:30;25.70;37.10
2955;DHT22;1487;51.470;6.938;2023-04-27T14:06:57;25.60;37.30
2955;DHT22;1487;51.470;6.938;2023-04-27T14:09:24;24.90;37.70
2955;DHT22;1487;51.470;6.938;2023-04-27T14:11:54;24.00;38.60
2955;DHT22;1487;51.470;6.938;2023-04-27T14:14:21;23.20;38.60
2955;DHT22;1487;51.470;6.938;2023-04-27T14:16:47;22.80;38.60
2955;DHT22;1487;51.470;6.938;2023-04-27T14:19:15;22.90;39.60
2955;DHT22;1487;51.470;6.938;2023-04-27T14:21:44;23.00;40.10
2955;DHT22;1487;51.470;6.938;2023-04-27T14:24:11;23.10;41.00
2955;DHT22;1487;51.470;6.938;2023-04-27T14:26:38;23.30;43.10
2955;DHT22;1487;51.470;6.938;2023-04-27T14:29:10;23.40;42.30
2955;DHT22;1487;51.470;6.938;2023-04-27T14:31:37;23.20;41.70
2955;DHT22;1487;51.470;6.938;2023-04-27T14:34:04;22.20;42.30
2955;DHT22;1487;51.470;6.938;2023-04-27T14:36:31;22.50;43.30
2955;DHT22;1487;51.470;6.938;2023-04-27T14:38:58;22.50;41.90
2955;DHT22;1487;51.470;6.938;2023-04-27T14:41:25;22.70;43.80
2955;DHT22;1487;51.470;6.938;2023-04-27T14:43:52;22.50;41.60
2955;DHT22;1487;51.470;6.938;2023-04-27T14:46:20;22.60;43.50
2955;DHT22;1487;51.470;6.938;2023-04-27T14:48:47;22.50;42.00
2955;DHT22;1487;51.470;6.938;2023-04-27T14:51:15;22.30;41.40
2955;DHT22;1487;51.470;6.938;2023-04-27T14:53:42;22.00;41.70
2955;DHT22;1487;51.470;6.938;2023-04-27T14:56:10;21.60;41.80
2955;DHT22;1487;51.470;6.938;2023-04-27T14:58:37;21.20;41.70
2955;DHT22;1487;51.470;6.938;2023-04-27T15:01:05;20.50;41.90
2955;DHT22;1487;51.470;6.938;2023-04-27T15:03:33;20.50;44.40
2955;DHT22;1487;51.470;6.938;2023-04-27T15:06:01;20.60;43.50
2955;DHT22;1487;51.470;6.938;2023-04-27T15:08:28;20.60;43.30
2955;DHT22;1487;51.470;6.938;2023-04-27T15:10:55;20.60;43.40
2955;DHT22;1487;51.470;6.938;2023-04-27T15:13:24;20.40;43.30
2955;DHT22;1487;51.470;6.938;2023-04-27T15:15:53;20.20;44.40
2955;DHT22;1487;51.470;6.938;2023-04-27T15:18:20;20.20;45.60
2955;DHT22;1487;51.470;6.938;2023-04-27T15:20:51;20.10;44.70
2955;DHT22;1487;51.470;6.938;2023-04-27T15:23:18;19.50;43.90
2955;DHT22;1487;51.470;6.938;2023-04-27T15:25:45;18.90;43.80
2955;DHT22;1487;51.470;6.938;2023-04-27T15:28:13;18.70;44.60
2955;DHT22;1487;51.470;6.938;2023-04-27T15:30:40;18.40;45.00
2955;DHT22;1487;51.470;6.938;2023-04-27T15:33:07;18.30;46.50
2955;DHT22;1487;51.470;6.938;2023-04-27T15:35:34;17.90;46.50
2955;DHT22;1487;51.470;6.938;2023-04-27T15:38:05;18.00;48.50
2955;DHT22;1487;51.470;6.938;2023-04-27T15:40:33;18.20;48.40
2955;DHT22;1487;51.470;6.938;2023-04-27T15:43:00;18.40;48.30
2955;DHT22;1487;51.470;6.938;2023-04-27T15:45:27;18.30;48.60
2955;DHT22;1487;51.470;6.938;2023-04-27T15:47:54;18.30;47.60
2955;DHT22;1487;51.470;6.938;2023-04-27T15:50:22;18.20;47.10
2955;DHT22;1487;51.470;6.938;2023-04-27T15:52:50;18.00;47.20
2955;DHT22;1487;51.470;6.938;2023-04-27T15:55:18;17.90;48.90
2955;DHT22;1487;51.470;6.938;2023-04-27T15:57:45;17.80;48.40
2955;DHT22;1487;51.470;6.938;2023-04-27T16:00:13;17.40;47.30
2955;DHT22;1487;51.470;6.938;2023-04-27T16:02:41;17.20;47.80
2955;DHT22;1487;51.470;6.938;2023-04-27T16:05:08;17.00;48.20
2955;DHT22;1487;51.470;6.938;2023-04-27T16:07:36;17.00;48.50
2955;DHT22;1487;51.470;6.938;2023-04-27T16:10:05;16.90;50.20